Time;durP1;ratioP1;P1;durP2;ratioP2;P2;SDS_P1;SDS_P2;PMS_P1;PMS_P2;Temp;Humidity;BMP_temperature;BMP_pressure;BME280_temperature;BME280_humidity;BME280_pressure;Samples;Min_cycle;Max_cycle;Signal;HPM_P1;HPM_P2
2021/08/01 00:00:06;;;;;;;7.73;6.03;;;;;;;18.10;73.70;100284.34;5038266;28;20253;-63
2021/08/01 00:02:32;;;;;;;6.73;6.03;;;;;;;18.03;74.10;100285.44;5038508;28;20185;-64
2021/08/01 00:04:57;;;;;;;7.00;6.30;;;;;;;18.12;74.02;100286.03;5037947;28;20804;-63
2021/08/01 00:07:23;;;;;;;6.70;6.10;;;;;;;18.16;73.47;100287.69;5038091;28;20177;-63
2021/08/01 00:09:48;;;;;;;7.00;6.40;;;;;;;18.20;73.32;100284.94;5038388;28;20174;-63
2021/08/01 00:12:13;;;;;;;10.70;7.00;;;;;;;18.25;72.96;100285.69;5038219;28;20210;-64
2021/08/01 00:14:39;;;;;;;7.73;6.80;;;;;;;18.09;73.45;100283.50;5042208;28;20189;-64
2021/08/01 00:17:04;;;;;;;7.70;7.00;;;;;;;17.79;74.34;100285.19;5042618;28;20436;-63
2021/08/01 00:19:29;;;;;;;10.43;6.87;;;;;;;18.05;73.90;100279.22;5042080;28;20182;-62
2021/08/01 00:21:55;;;;;;;9.50;7.33;;;;;;;17.81;74.32;100273.69;5041881;28;20190;-64
2021/08/01 00:24:20;;;;;;;8.10;7.10;;;;;;;17.31;75.83;100284.69;5042360;28;20170;-63
2021/08/01 00:26:45;;;;;;;9.77;7.10;;;;;;;17.78;74.69;100281.69;5041904;28;20617;-63
2021/08/01 00:29:10;;;;;;;7.87;6.67;;;;;;;17.66;74.90;100287.31;5041861;28;20174;-64
2021/08/01 00:31:36;;;;;;;8.33;7.60;;;;;;;17.78;74.46;100279.06;5042301;28;20194;-63
2021/08/01 00:34:01;;;;;;;7.90;7.20;;;;;;;18.16;73.24;100277.13;5041667;28;20174;-63
2021/08/01 00:36:26;;;;;;;8.27;6.70;;;;;;;17.58;74.53;100268.19;5041773;28;20170;-64
2021/08/01 00:38:52;;;;;;;7.17;6.57;;;;;;;17.76;73.76;100274.72;5042107;28;20174;-63
2021/08/01 00:41:17;;;;;;;7.33;6.13;;;;;;;17.71;74.62;100280.16;5041636;28;20170;-65
2021/08/01 00:43:42;;;;;;;7.50;6.80;;;;;;;18.12;72.81;100283.41;5041675;28;20224;-64
2021/08/01 00:46:07;;;;;;;7.20;6.57;;;;;;;18.19;72.86;100284.09;5042115;28;20171;-64
2021/08/01 00:48:36;;;;;;;7.90;7.07;;;;;;;17.93;73.36;100298.91;5041631;28;20181;-63
2021/08/01 00:51:01;;;;;;;9.17;8.17;;;;;;;17.98;73.82;100298.75;5041495;28;20229;-64
2021/08/01 00:53:26;;;;;;;7.53;6.73;;;;;;;17.71;74.05;100295.06;5041829;28;20412;-64
2021/08/01 00:55:52;;;;;;;8.00;7.20;;;;;;;18.16;72.48;100287.69;5041425;28;20499;-63
2021/08/01 00:58:17;;;;;;;10.70;6.70;;;;;;;18.06;73.03;100280.94;5041401;28;20440;-63
2021/08/01 01:03:28;;;;;;;7.40;6.70;;;;;;;18.01;73.47;100274.94;5041322;28;20586;-63
2021/08/01 01:06:19;;;;;;;10.10;6.60;;;;;;;18.41;71.67;100279.03;5041593;28;20387;-63
2021/08/01 01:09:02;;;;;;;8.20;7.40;;;;;;;18.12;72.90;100269.38;5041293;28;20455;-64
2021/08/01 01:11:31;;;;;;;8.97;7.13;;;;;;;18.01;73.19;100267.03;5041201;28;20456;-63
2021/08/01 01:13:57;;;;;;;8.47;7.63;;;;;;;18.14;72.23;100263.13;5040890;28;20419;-64
2021/08/01 01:16:24;;;;;;;7.70;7.00;;;;;;;17.98;73.18;100261.81;5040343;28;20413;-64
2021/08/01 01:18:52;;;;;;;7.37;6.67;;;;;;;18.07;72.66;100264.19;5040903;28;20488;-64
2021/08/01 01:21:35;;;;;;;8.00;7.03;;;;;;;17.88;73.38;100261.19;5040887;28;20413;-64
2021/08/01 01:24:04;;;;;;;9.17;7.77;;;;;;;17.96;73.10;100256.59;5040481;28;20889;-63
2021/08/01 01:27:07;;;;;;;10.70;7.93;;;;;;;17.58;74.62;100252.38;5040175;28;20467;-63
2021/08/01 01:29:54;;;;;;;10.03;7.03;;;;;;;17.93;72.91;100254.06;5040755;28;20408;-63
2021/08/01 01:32:31;;;;;;;12.43;8.23;;;;;;;17.84;73.51;100260.41;5040675;28;20811;-64
2021/08/01 01:35:04;;;;;;;7.77;7.07;;;;;;;17.81;74.05;100255.22;5039927;28;20483;-63
2021/08/01 01:37:30;;;;;;;8.97;8.17;;;;;;;17.85;73.72;100253.38;5039933;28;20408;-64
2021/08/01 01:39:58;;;;;;;7.40;6.80;;;;;;;17.96;72.73;100253.97;5039975;28;20409;-64
2021/08/01 01:42:24;;;;;;;7.93;7.20;;;;;;;17.72;73.94;100260.75;5039829;28;20414;-64
2021/08/01 01:44:50;;;;;;;7.00;6.40;;;;;;;17.81;73.51;100260.50;5040362;28;20432;-64
2021/08/01 01:47:16;;;;;;;8.23;7.00;;;;;;;18.06;72.86;100262.47;5040036;28;20401;-64
2021/08/01 01:49:41;;;;;;;11.60;7.10;;;;;;;18.31;71.99;100259.13;5040419;28;20166;-64
2021/08/01 01:52:09;;;;;;;7.47;6.87;;;;;;;18.14;72.11;100259.63;5040328;28;20707;-64
2021/08/01 01:54:34;;;;;;;9.30;7.20;;;;;;;18.10;72.27;100265.88;5040687;28;20162;-63
2021/08/01 01:57:00;;;;;;;7.93;6.70;;;;;;;18.05;72.55;100267.78;5040218;28;20424;-66
2021/08/01 01:59:26;;;;;;;7.50;6.60;;;;;;;18.06;72.86;100274.81;5040089;28;20166;-64
2021/08/01 02:01:51;;;;;;;7.80;7.03;;;;;;;18.01;72.94;100277.59;5040720;28;20226;-63
2021/08/01 02:04:16;;;;;;;7.47;6.33;;;;;;;18.25;72.29;100275.13;5040025;28;20506;-63
2021/08/01 02:06:42;;;;;;;7.20;6.50;;;;;;;18.43;71.30;100266.66;5040218;28;20253;-63
2021/08/01 02:09:18;;;;;;;8.10;6.50;;;;;;;18.29;71.80;100260.94;5040648;28;20245;-63
2021/08/01 02:11:45;;;;;;;7.63;6.83;;;;;;;18.29;71.73;100263.56;5039871;28;20259;-64
2021/08/01 02:14:15;;;;;;;7.50;6.80;;;;;;;18.11;72.50;100265.00;5039117;28;20401;-63
2021/08/01 02:16:45;;;;;;;7.33;6.63;;;;;;;18.27;71.63;100262.78;5039247;28;20417;-63
2021/08/01 02:19:12;;;;;;;8.03;7.23;;;;;;;17.95;73.11;100256.66;5039131;28;20417;-63
2021/08/01 02:21:41;;;;;;;7.90;6.73;;;;;;;18.15;72.71;100256.06;5039715;28;20418;-63
2021/08/01 02:24:07;;;;;;;8.00;7.20;;;;;;;18.20;72.69;100261.19;5038710;28;20505;-63
2021/08/01 02:26:33;;;;;;;7.53;6.63;;;;;;;18.03;72.80;100259.94;5039389;28;20384;-63
2021/08/01 02:28:59;;;;;;;7.80;7.00;;;;;;;17.93;73.52;100258.47;5039031;28;20446;-64
2021/08/01 02:31:25;;;;;;;9.50;7.30;;;;;;;17.68;74.59;100248.56;5039625;28;20209;-64
2021/08/01 02:33:51;;;;;;;8.13;7.43;;;;;;;17.91;73.83;100247.06;5039690;28;20429;-63
2021/08/01 02:36:18;;;;;;;7.97;7.37;;;;;;;17.82;74.23;100245.56;5038733;28;20523;-63
2021/08/01 02:38:45;;;;;;;8.67;7.70;;;;;;;17.88;73.67;100240.09;5038704;28;20409;-63
2021/08/01 02:41:19;;;;;;;7.70;6.90;;;;;;;17.55;75.20;100236.63;5039349;28;20368;-64
2021/08/01 02:43:46;;;;;;;8.40;7.67;;;;;;;17.85;74.38;100238.41;5038643;28;20384;-64
2021/08/01 02:46:11;;;;;;;8.90;8.00;;;;;;;17.70;74.93;100241.50;5038855;28;20405;-64
2021/08/01 02:48:37;;;;;;;9.53;8.30;;;;;;;17.85;74.94;100235.78;5038675;28;20504;-63
2021/08/01 02:51:03;;;;;;;9.60;8.60;;;;;;;17.73;75.54;100236.13;5038472;28;20169;-63
2021/08/01 02:53:31;;;;;;;8.53;7.77;;;;;;;17.67;75.32;100249.47;5039246;28;20253;-64
2021/08/01 02:55:57;;;;;;;9.27;8.37;;;;;;;17.58;76.29;100247.97;5038281;28;20405;-64
2021/08/01 02:58:24;;;;;;;9.87;8.97;;;;;;;17.24;77.83;100253.25;5038431;28;20439;-64
2021/08/01 03:00:50;;;;;;;9.77;8.43;;;;;;;17.54;77.29;100242.84;5039384;28;20518;-64
2021/08/01 03:03:17;;;;;;;10.00;9.10;;;;;;;17.96;75.15;100253.13;5038212;28;20413;-64
2021/08/01 03:05:43;;;;;;;10.80;8.30;;;;;;;17.73;76.10;100251.94;5038459;28;20496;-63
2021/08/01 03:08:12;;;;;;;10.63;9.63;;;;;;;17.62;76.36;100257.53;5039929;28;20449;-63
2021/08/01 03:10:45;;;;;;;13.60;11.00;;;;;;;18.26;74.04;100263.66;5038907;28;20428;-64
2021/08/01 03:13:10;;;;;;;10.83;9.70;;;;;;;17.66;76.06;100259.16;5038720;28;20420;-63
2021/08/01 03:15:36;;;;;;;10.70;9.37;;;;;;;17.84;76.01;100264.84;5038707;28;20782;-63
2021/08/01 03:18:01;;;;;;;11.07;9.90;;;;;;;17.81;75.56;100260.50;5038862;28;20544;-63
2021/08/01 03:20:26;;;;;;;10.40;9.50;;;;;;;17.78;76.09;100255.31;5038868;28;20391;-64
2021/08/01 03:22:52;;;;;;;10.67;9.63;;;;;;;17.70;76.32;100246.78;5038391;28;20226;-63
2021/08/01 03:25:17;;;;;;;11.63;10.00;;;;;;;17.83;75.48;100248.16;5038586;28;20228;-64
2021/08/01 03:27:42;;;;;;;11.37;10.20;;;;;;;17.79;76.35;100259.69;5039271;28;20423;-63
2021/08/01 03:30:08;;;;;;;10.90;9.50;;;;;;;17.85;76.04;100248.97;5038558;28;20174;-63
2021/08/01 03:32:34;;;;;;;11.27;10.07;;;;;;;17.76;76.11;100256.28;5038390;28;20530;-64
2021/08/01 03:34:59;;;;;;;12.30;10.17;;;;;;;17.59;76.23;100254.09;5038848;28;20507;-63
2021/08/01 03:37:26;;;;;;;10.10;8.03;;;;;;;17.44;76.46;100264.16;5038417;28;20178;-65
2021/08/01 03:39:51;;;;;;;8.93;8.23;;;;;;;17.54;75.82;100266.56;5038427;28;20167;-64
2021/08/01 03:42:16;;;;;;;8.40;7.63;;;;;;;17.30;77.40;100269.75;5038907;28;20470;-64
2021/08/01 03:44:42;;;;;;;9.80;8.80;;;;;;;17.85;75.13;100264.78;5038285;28;20178;-64
2021/08/01 03:47:07;;;;;;;8.37;7.57;;;;;;;17.54;75.40;100277.94;5038382;28;20162;-64
2021/08/01 03:49:32;;;;;;;7.90;7.13;;;;;;;17.60;75.32;100287.47;5038512;28;20171;-64
2021/08/01 03:51:58;;;;;;;8.80;7.20;;;;;;;17.63;75.63;100292.63;5038091;28;20202;-64
2021/08/01 03:54:23;;;;;;;7.83;7.03;;;;;;;17.62;75.25;100297.06;5038124;28;20178;-64
2021/08/01 03:56:48;;;;;;;7.47;6.70;;;;;;;17.75;74.88;100299.34;5038712;28;20167;-64
2021/08/01 03:59:14;;;;;;;7.40;6.60;;;;;;;17.40;75.79;100299.41;5037954;28;20177;-63
2021/08/01 04:01:39;;;;;;;7.77;6.87;;;;;;;17.70;74.88;100307.41;5037878;28;20181;-63
2021/08/01 04:04:05;;;;;;;9.37;6.73;;;;;;;17.84;74.44;100313.16;5038066;28;20481;-64
2021/08/01 04:06:30;;;;;;;9.93;6.80;;;;;;;17.59;75.06;100307.69;5037968;28;20575;-64
2021/08/01 04:08:56;;;;;;;7.13;6.53;;;;;;;17.71;74.80;100306.50;5038061;28;20166;-63
2021/08/01 04:11:21;;;;;;;8.10;7.30;;;;;;;17.89;74.10;100299.84;5038233;28;20205;-63
2021/08/01 04:13:47;;;;;;;7.47;6.77;;;;;;;17.94;74.24;100294.47;5037784;28;20174;-63
2021/08/01 04:16:12;;;;;;;7.50;6.50;;;;;;;17.64;75.19;100289.09;5037266;28;20201;-63
2021/08/01 04:18:37;;;;;;;12.30;9.13;;;;;;;17.85;74.92;100291.16;5038383;28;20428;-63
2021/08/01 04:21:09;;;;;;;8.77;7.97;;;;;;;17.77;74.62;100285.22;5037836;28;20178;-64
2021/08/01 04:23:35;;;;;;;12.43;7.37;;;;;;;18.28;73.36;100277.66;5037617;28;20255;-64
2021/08/01 04:26:01;;;;;;;14.43;8.50;;;;;;;18.79;70.81;100278.75;5038240;28;20507;-64
2021/08/01 04:28:26;;;;;;;8.47;7.10;;;;;;;18.98;69.61;100279.94;5037877;28;20408;-64
2021/08/01 04:30:51;;;;;;;8.20;6.77;;;;;;;18.31;72.36;100281.09;5037795;28;20253;-63
2021/08/01 04:33:16;;;;;;;8.30;7.40;;;;;;;17.89;73.81;100288.41;5038130;28;20184;-63
2021/08/01 04:35:42;;;;;;;10.03;8.20;;;;;;;17.66;74.65;100298.69;5037917;28;20170;-63
2021/08/01 04:38:07;;;;;;;8.50;7.60;;;;;;;17.66;74.62;100306.59;5037819;28;20422;-64
2021/08/01 04:40:32;;;;;;;10.23;8.93;;;;;;;18.20;72.98;100313.97;5038244;28;20174;-64
2021/08/01 04:42:58;;;;;;;10.30;8.90;;;;;;;18.04;73.14;100313.56;5037611;28;20171;-64
2021/08/01 04:45:23;;;;;;;10.57;7.60;;;;;;;18.14;72.69;100310.63;5037748;28;20168;-64
2021/08/01 04:47:48;;;;;;;9.70;8.70;;;;;;;18.15;72.99;100309.69;5037854;28;20253;-64
2021/08/01 04:50:14;;;;;;;13.30;8.67;;;;;;;18.00;73.43;100308.34;5037874;28;20249;-64
2021/08/01 04:52:40;;;;;;;10.63;8.10;;;;;;;18.08;73.17;100315.22;5037471;28;20252;-65
2021/08/01 04:55:05;;;;;;;9.70;8.50;;;;;;;17.85;73.80;100316.66;5038223;28;20163;-63
2021/08/01 04:57:31;;;;;;;9.93;8.93;;;;;;;17.71;74.68;100308.25;5037542;28;20818;-64
2021/08/01 04:59:56;;;;;;;9.43;8.30;;;;;;;17.96;74.08;100309.34;5040566;28;20184;-65
2021/08/01 05:02:21;;;;;;;9.90;8.80;;;;;;;18.08;73.13;100308.16;5041839;28;20163;-64
2021/08/01 05:04:47;;;;;;;11.10;8.77;;;;;;;17.97;73.47;100310.22;5041132;28;20603;-63
2021/08/01 05:07:12;;;;;;;11.53;9.37;;;;;;;18.15;72.94;100322.88;5041293;28;20165;-63
2021/08/01 05:09:37;;;;;;;10.13;8.50;;;;;;;18.19;72.70;100323.66;5041729;28;20437;-63
2021/08/01 05:12:03;;;;;;;12.73;9.63;;;;;;;18.09;73.04;100328.34;5041764;28;20206;-65
2021/08/01 05:14:29;;;;;;;10.03;9.03;;;;;;;18.06;72.93;100330.19;5041816;28;20216;-63
2021/08/01 05:16:55;;;;;;;13.20;9.40;;;;;;;18.12;73.02;100332.69;5041620;28;20173;-64
2021/08/01 05:19:20;;;;;;;12.73;9.20;;;;;;;17.73;73.77;100327.56;5041016;28;20417;-64
2021/08/01 05:21:45;;;;;;;11.67;9.03;;;;;;;17.74;74.06;100338.06;5041058;28;20489;-64
2021/08/01 05:24:11;;;;;;;12.10;8.80;;;;;;;18.18;72.57;100335.13;5040964;28;20221;-64
2021/08/01 05:26:36;;;;;;;15.83;9.50;;;;;;;18.10;72.94;100339.75;5040852;28;20170;-63
2021/08/01 05:29:01;;;;;;;13.07;9.27;;;;;;;18.26;72.37;100324.34;5040931;28;20182;-64
2021/08/01 05:31:26;;;;;;;12.93;10.20;;;;;;;18.42;71.28;100325.63;5041258;28;20213;-64
2021/08/01 05:33:52;;;;;;;10.23;8.50;;;;;;;18.98;69.67;100323.97;5040409;28;20540;-64
2021/08/01 05:36:17;;;;;;;11.73;9.30;;;;;;;18.93;69.80;100320.59;5040682;28;20212;-66
2021/08/01 05:38:42;;;;;;;13.07;8.70;;;;;;;18.62;70.77;100317.13;5040997;28;20208;-65
2021/08/01 05:41:13;;;;;;;9.20;8.10;;;;;;;18.52;70.86;100324.47;5040541;28;20174;-64
2021/08/01 05:43:39;;;;;;;9.70;8.80;;;;;;;18.42;71.26;100324.78;5040424;28;20166;-64
2021/08/01 05:46:05;;;;;;;11.23;9.73;;;;;;;18.38;71.72;100318.72;5054727;28;20818;-63
2021/08/01 05:48:30;;;;;;;12.23;9.97;;;;;;;18.06;71.98;100323.13;5060165;28;20432;-63
2021/08/01 05:50:55;;;;;;;11.97;10.60;;;;;;;18.58;70.92;100325.16;5060275;28;20181;-67
2021/08/01 05:53:21;;;;;;;15.80;11.00;;;;;;;18.92;69.44;100324.19;5060578;28;20622;-65
2021/08/01 05:55:49;;;;;;;12.07;9.93;;;;;;;18.58;70.19;100326.03;5060244;28;20182;-64
2021/08/01 05:58:14;;;;;;;16.20;11.73;;;;;;;18.20;71.41;100329.78;5060467;28;20169;-65
2021/08/01 06:00:40;;;;;;;12.13;10.93;;;;;;;18.48;70.22;100330.75;5060326;28;20408;-65
2021/08/01 06:03:05;;;;;;;15.67;11.90;;;;;;;18.42;70.93;100320.34;5059898;28;20224;-65
2021/08/01 06:05:30;;;;;;;12.30;11.00;;;;;;;18.72;70.07;100325.63;5060074;28;20177;-65
2021/08/01 06:07:56;;;;;;;13.03;11.83;;;;;;;18.50;70.89;100326.25;5060314;28;20235;-65
2021/08/01 06:10:21;;;;;;;15.33;11.73;;;;;;;18.83;69.69;100320.88;5058827;28;20174;-65
2021/08/01 06:12:46;;;;;;;14.70;12.77;;;;;;;18.93;69.01;100316.19;5059843;28;20239;-65
2021/08/01 06:15:12;;;;;;;14.63;11.20;;;;;;;18.71;69.85;100321.25;5060195;28;20630;-65
2021/08/01 06:17:37;;;;;;;14.57;11.17;;;;;;;18.97;69.35;100316.94;5059736;28;20177;-65
2021/08/01 06:20:03;;;;;;;16.10;11.80;;;;;;;18.51;70.11;100325.38;5059641;28;20558;-65
2021/08/01 06:22:28;;;;;;;11.90;10.20;;;;;;;18.59;70.43;100329.53;5059911;28;20374;-68
2021/08/01 06:24:53;;;;;;;13.00;10.53;;;;;;;18.82;69.30;100319.16;5059471;28;20543;-67
2021/08/01 06:27:19;;;;;;;12.33;10.27;;;;;;;19.05;68.40;100312.31;5059633;28;20181;-67
2021/08/01 06:29:44;;;;;;;16.67;11.00;;;;;;;18.72;69.62;100322.13;5059502;28;20198;-67
2021/08/01 06:32:09;;;;;;;15.93;11.73;;;;;;;18.86;68.99;100314.59;5059308;28;20220;-67
2021/08/01 06:34:35;;;;;;;13.20;11.80;;;;;;;19.42;67.37;100312.84;5059623;28;20162;-67
2021/08/01 06:37:02;;;;;;;13.07;10.63;;;;;;;19.30;67.60;100311.50;5059253;28;20198;-67
2021/08/01 06:39:27;;;;;;;12.70;10.63;;;;;;;18.97;68.54;100320.47;5059251;28;20431;-67
2021/08/01 06:41:52;;;;;;;13.33;9.90;;;;;;;19.31;68.26;100326.44;5059851;28;20404;-67
2021/08/01 06:44:18;;;;;;;12.70;10.53;;;;;;;19.16;68.45;100318.09;5059098;28;20531;-67
2021/08/01 06:46:43;;;;;;;12.43;10.50;;;;;;;19.24;68.05;100320.50;5059116;28;20184;-67
2021/08/01 06:49:08;;;;;;;12.70;10.20;;;;;;;19.10;68.34;100315.63;5059720;28;20539;-64
2021/08/01 06:51:34;;;;;;;11.97;10.87;;;;;;;19.15;68.25;100321.63;5059186;28;20197;-64
2021/08/01 06:53:59;;;;;;;12.97;9.93;;;;;;;19.33;67.86;100314.88;5058889;28;20185;-64
2021/08/01 06:56:24;;;;;;;13.10;10.90;;;;;;;19.35;68.16;100317.50;5059323;28;20281;-64
2021/08/01 06:58:49;;;;;;;15.43;10.00;;;;;;;19.25;67.71;100322.19;5058929;28;20529;-64
2021/08/01 07:01:15;;;;;;;11.83;9.90;;;;;;;19.08;68.50;100316.59;5058713;28;20248;-64
2021/08/01 07:03:40;;;;;;;14.50;9.90;;;;;;;19.53;67.31;100327.41;5059118;28;20180;-68
2021/08/01 07:06:05;;;;;;;12.43;10.07;;;;;;;19.35;67.95;100330.69;5058733;28;20450;-64
2021/08/01 07:08:31;;;;;;;11.20;9.60;;;;;;;19.58;66.87;100331.69;5058750;28;20169;-66
2021/08/01 07:10:56;;;;;;;12.80;11.57;;;;;;;19.48;66.73;100329.38;5059078;28;20184;-64
2021/08/01 07:13:21;;;;;;;13.17;11.00;;;;;;;20.01;65.61;100330.19;5058558;28;20188;-64
2021/08/01 07:15:48;;;;;;;13.20;11.83;;;;;;;20.01;64.80;100327.56;5059270;28;20201;-67
2021/08/01 07:18:13;;;;;;;15.67;11.73;;;;;;;19.51;66.37;100339.84;5060102;28;20169;-65
2021/08/01 07:20:38;;;;;;;12.83;11.63;;;;;;;19.15;68.37;100341.94;5058608;28;20730;-64
2021/08/01 07:23:06;;;;;;;12.60;11.40;;;;;;;18.99;68.29;100345.03;5057944;28;20590;-64
2021/08/01 07:25:31;;;;;;;14.33;12.10;;;;;;;19.67;66.76;100341.94;5058914;28;20256;-64
2021/08/01 07:27:56;;;;;;;13.90;11.93;;;;;;;20.15;65.37;100341.16;5058386;28;20501;-65
2021/08/01 07:30:22;;;;;;;12.80;10.30;;;;;;;19.52;65.69;100330.13;5058319;28;20228;-65
2021/08/01 07:32:47;;;;;;;13.57;11.03;;;;;;;20.20;63.93;100335.69;5058710;28;20197;-65
2021/08/01 07:35:13;;;;;;;11.63;10.27;;;;;;;20.50;62.67;100336.34;5058222;28;20197;-64
2021/08/01 07:37:39;;;;;;;11.20;10.10;;;;;;;20.77;61.57;100330.94;5058219;28;20251;-64
2021/08/01 07:40:05;;;;;;;12.23;10.20;;;;;;;20.86;61.16;100327.03;5058650;28;20170;-64
2021/08/01 07:42:30;;;;;;;11.40;9.73;;;;;;;21.71;59.38;100323.56;5058045;28;20173;-63
2021/08/01 07:45:01;;;;;;;11.70;10.00;;;;;;;21.41;59.99;100329.22;5057988;28;20500;-63
2021/08/01 07:47:27;;;;;;;10.23;9.20;;;;;;;21.45;59.48;100335.25;5058456;28;20170;-63
2021/08/01 07:49:52;;;;;;;11.37;9.50;;;;;;;21.33;59.90;100329.53;5058115;28;20454;-64
2021/08/01 07:52:19;;;;;;;11.13;9.40;;;;;;;21.10;60.84;100333.13;5058065;28;20205;-63
2021/08/01 07:54:45;;;;;;;9.87;8.97;;;;;;;20.36;63.06;100325.38;5058264;28;20185;-63
2021/08/01 07:57:27;;;;;;;11.47;9.93;;;;;;;20.15;63.38;100330.56;5057236;28;20462;-64
2021/08/01 07:59:53;;;;;;;10.03;9.03;;;;;;;19.89;64.00;100335.94;5057836;28;20416;-64
2021/08/01 08:02:19;;;;;;;11.53;9.53;;;;;;;19.92;64.28;100331.41;5057892;28;20412;-65
2021/08/01 08:04:44;;;;;;;11.00;9.50;;;;;;;20.22;63.24;100325.91;5057826;28;20434;-65
2021/08/01 08:07:10;;;;;;;10.33;9.30;;;;;;;21.00;61.14;100329.16;5058301;28;20204;-64
2021/08/01 08:09:35;;;;;;;10.00;9.10;;;;;;;20.99;61.35;100324.78;5057749;28;20181;-64
2021/08/01 08:12:00;;;;;;;12.43;9.37;;;;;;;21.39;59.16;100320.44;5057757;28;20208;-64
2021/08/01 08:14:26;;;;;;;10.93;8.80;;;;;;;22.17;56.96;100318.00;5057943;28;20182;-63
2021/08/01 08:16:51;;;;;;;14.03;9.60;;;;;;;23.09;54.17;100318.09;5057747;28;20177;-64
2021/08/01 08:19:16;;;;;;;8.40;7.80;;;;;;;23.37;53.46;100312.31;5057759;28;20201;-64
2021/08/01 08:21:41;;;;;;;8.30;7.50;;;;;;;22.94;54.22;100310.91;5057875;28;20215;-65
2021/08/01 08:24:07;;;;;;;8.83;8.03;;;;;;;22.32;56.15;100309.31;5057409;28;20225;-64
2021/08/01 08:26:32;;;;;;;9.23;8.40;;;;;;;21.67;57.72;100312.19;5057674;28;20205;-63
2021/08/01 08:28:57;;;;;;;9.83;7.77;;;;;;;21.61;57.79;100312.50;5058032;28;20543;-63
2021/08/01 08:31:23;;;;;;;10.33;9.23;;;;;;;21.75;57.47;100311.88;5057217;28;20208;-63
2021/08/01 08:33:48;;;;;;;8.20;7.40;;;;;;;21.37;58.07;100319.66;5058606;28;20177;-64
2021/08/01 08:36:13;;;;;;;9.80;8.17;;;;;;;21.13;59.13;100319.75;5061922;28;20184;-64
2021/08/01 08:38:38;;;;;;;9.20;8.40;;;;;;;22.01;57.02;100323.13;5061565;28;20169;-64
2021/08/01 08:41:04;;;;;;;8.73;7.77;;;;;;;22.61;55.36;100317.75;5061485;28;20180;-64
2021/08/01 08:43:29;;;;;;;7.80;7.20;;;;;;;22.16;56.34;100324.22;5060944;28;20189;-64
2021/08/01 08:45:57;;;;;;;8.37;7.67;;;;;;;21.39;57.54;100323.09;5061429;28;20174;-64
2021/08/01 08:48:25;;;;;;;10.00;8.30;;;;;;;22.00;56.70;100316.97;5060729;28;20169;-63
2021/08/01 08:50:52;;;;;;;10.83;8.93;;;;;;;23.60;52.98;100310.28;5061087;28;20415;-63
2021/08/01 08:53:19;;;;;;;8.80;7.00;;;;;;;23.78;51.06;100310.25;5060244;28;20459;-65
2021/08/01 08:55:45;;;;;;;7.30;6.60;;;;;;;23.21;52.02;100316.69;5060437;28;20408;-64
2021/08/01 08:58:10;;;;;;;11.47;10.17;;;;;;;21.91;56.33;100324.50;5060707;28;20412;-63
2021/08/01 09:00:36;;;;;;;9.30;7.50;;;;;;;22.33;55.09;100318.16;5060538;28;20209;-63
2021/08/01 09:03:01;;;;;;;8.50;7.70;;;;;;;22.79;53.98;100317.81;5061134;28;20181;-64
2021/08/01 09:05:27;;;;;;;7.80;7.07;;;;;;;22.70;54.30;100317.34;5061600;28;20177;-64
2021/08/01 09:07:53;;;;;;;8.70;7.90;;;;;;;22.77;53.94;100317.91;5061031;28;20169;-64
2021/08/01 09:10:18;;;;;;;7.00;6.40;;;;;;;22.34;55.02;100312.81;5061062;28;20461;-64
2021/08/01 09:12:49;;;;;;;9.07;6.40;;;;;;;23.38;51.84;100311.38;5061011;28;20205;-65
2021/08/01 09:15:16;;;;;;;7.00;6.30;;;;;;;23.40;52.16;100311.28;5060968;28;20531;-68
2021/08/01 09:17:42;;;;;;;7.60;6.30;;;;;;;23.10;52.70;100308.34;5060725;28;20702;-68
2021/08/01 09:20:19;;;;;;;7.13;6.43;;;;;;;22.24;54.95;100311.47;5061669;28;20408;-68
2021/08/01 09:22:59;;;;;;;6.47;5.87;;;;;;;21.96;54.22;100317.16;5059635;28;20504;-66
2021/08/01 09:25:27;;;;;;;8.77;6.17;;;;;;;22.16;54.74;100321.56;5060566;28;20404;-67
2021/08/01 09:28:14;;;;;;;7.13;6.53;;;;;;;22.01;55.72;100318.69;5059821;28;20415;-67
2021/08/01 09:30:45;;;;;;;7.17;6.47;;;;;;;22.52;54.66;100308.41;5060513;28;20494;-65
2021/08/01 09:33:11;;;;;;;6.63;5.83;;;;;;;23.71;50.60;100299.91;5060228;28;20459;-65
2021/08/01 09:35:36;;;;;;;6.77;5.60;;;;;;;23.41;51.27;100305.03;5060318;28;20774;-65
2021/08/01 09:38:01;;;;;;;6.90;5.33;;;;;;;24.97;46.18;100299.31;5060762;28;20177;-66
2021/08/01 09:40:28;;;;;;;6.10;4.80;;;;;;;24.20;47.67;100299.13;5060351;28;20209;-66
2021/08/01 09:42:54;;;;;;;5.60;4.87;;;;;;;25.79;44.20;100299.88;5060049;28;20264;-66
2021/08/01 09:45:21;;;;;;;5.50;4.90;;;;;;;25.24;45.22;100301.34;5060446;28;20818;-67
2021/08/01 09:47:48;;;;;;;6.17;5.67;;;;;;;24.75;46.49;100302.38;5059311;28;20166;-69
2021/08/01 09:50:15;;;;;;;5.10;4.70;;;;;;;24.41;47.02;100290.91;5060234;28;20424;-67
2021/08/01 09:52:41;;;;;;;5.93;4.60;;;;;;;24.10;47.45;100284.59;5059206;28;20860;-67
2021/08/01 09:55:16;;;;;;;4.60;4.20;;;;;;;23.89;47.63;100286.59;5059720;28;20416;-66
2021/08/01 09:57:48;;;;;;;4.80;4.40;;;;;;;24.33;46.76;100280.69;5059844;28;20408;-66
2021/08/01 10:00:14;;;;;;;5.50;4.67;;;;;;;24.39;46.66;100279.47;5059800;28;20411;-64
2021/08/01 10:02:40;;;;;;;5.47;5.00;;;;;;;23.78;48.35;100284.47;5059570;28;20420;-64
2021/08/01 10:05:22;;;;;;;5.27;4.77;;;;;;;23.43;49.65;100281.84;5060142;28;20169;-65
2021/08/01 10:07:50;;;;;;;5.90;4.87;;;;;;;22.66;51.36;100283.00;5059805;28;20730;-64
2021/08/01 10:10:23;;;;;;;5.43;4.93;;;;;;;22.31;52.00;100286.38;5059787;28;20440;-64
2021/08/01 10:12:52;;;;;;;5.40;5.00;;;;;;;22.73;51.97;100284.41;5059330;28;20448;-65
2021/08/01 10:15:17;;;;;;;5.60;5.10;;;;;;;22.13;52.39;100279.25;5059597;28;20851;-66
2021/08/01 10:17:42;;;;;;;5.57;5.00;;;;;;;22.11;52.66;100281.97;5059713;28;20416;-65
2021/08/01 10:20:09;;;;;;;6.10;5.50;;;;;;;21.51;54.40;100281.94;5059637;28;20193;-65
2021/08/01 10:22:39;;;;;;;6.57;6.07;;;;;;;21.83;53.96;100277.06;5059625;28;20611;-65
2021/08/01 10:25:11;;;;;;;8.53;6.13;;;;;;;23.30;50.88;100275.44;5059547;28;20482;-65
2021/08/01 10:27:44;;;;;;;6.07;5.57;;;;;;;25.78;44.44;100266.09;5059445;28;20519;-63
2021/08/01 10:30:12;;;;;;;7.73;5.90;;;;;;;26.43;42.67;100256.72;5059220;28;20495;-67
2021/08/01 10:32:41;;;;;;;5.73;5.33;;;;;;;26.74;41.81;100252.09;5058638;28;20872;-66
2021/08/01 10:35:08;;;;;;;4.90;4.60;;;;;;;26.58;41.60;100254.03;5058372;28;20422;-65
2021/08/01 10:37:43;;;;;;;5.60;5.10;;;;;;;25.49;43.75;100258.09;5059279;28;20465;-63
2021/08/01 10:40:09;;;;;;;5.00;4.60;;;;;;;24.92;45.16;100261.41;5059036;28;20418;-64
2021/08/01 10:42:39;;;;;;;6.20;5.27;;;;;;;24.45;46.18;100260.50;5058511;28;20416;-64
2021/08/01 10:45:04;;;;;;;5.30;4.90;;;;;;;23.84;47.51;100256.66;5059720;28;20424;-64
2021/08/01 10:47:30;;;;;;;5.70;5.30;;;;;;;23.73;48.06;100251.06;5059153;28;20454;-65
2021/08/01 10:49:56;;;;;;;5.67;5.27;;;;;;;24.03;47.70;100257.44;5058319;28;20578;-64
2021/08/01 10:52:28;;;;;;;5.53;4.90;;;;;;;23.48;48.40;100257.69;5058624;28;20196;-64
2021/08/01 10:54:55;;;;;;;6.23;4.70;;;;;;;24.26;46.65;100257.13;5058684;28;20415;-65
2021/08/01 10:57:21;;;;;;;5.33;4.90;;;;;;;24.48;46.12;100256.78;5058297;28;20451;-67
2021/08/01 10:59:46;;;;;;;5.67;5.17;;;;;;;25.29;44.40;100256.56;5059248;28;20419;-66
2021/08/01 11:02:12;;;;;;;8.23;5.20;;;;;;;24.61;45.53;100255.13;5058836;28;20212;-66
2021/08/01 11:04:38;;;;;;;5.73;5.23;;;;;;;25.10;45.29;100247.94;5058468;28;20260;-69
2021/08/01 11:07:04;;;;;;;7.87;5.03;;;;;;;24.48;46.61;100252.31;5058377;28;20440;-67
2021/08/01 11:09:29;;;;;;;5.50;5.00;;;;;;;24.71;46.06;100250.19;5058633;28;20185;-65
2021/08/01 11:12:19;;;;;;;5.33;4.83;;;;;;;24.08;46.81;100245.69;5058584;28;20267;-65
2021/08/01 11:14:46;;;;;;;5.93;5.50;;;;;;;23.24;49.15;100262.47;5058436;28;20169;-65
2021/08/01 11:17:12;;;;;;;6.00;5.60;;;;;;;23.16;50.80;100253.06;5058473;28;20434;-65
2021/08/01 11:19:37;;;;;;;6.07;5.50;;;;;;;22.98;52.51;100252.19;5058340;28;20420;-65